Latest Weather Observations for Toowoomba

IDQ60901

Issued at 10:21 am EST Tuesday 6 December 2022 (issued every 10 minutes, with the page automatically refreshed every 10 minutes)

About weather observations | Map of Brisbane area stations | Latest observations for Brisbane area | Other Formats
Station Details ID: 041529 Name: TOOWOOMBA AIRPORT Lat: -27.54 Lon: 151.91 Height: 640.9 m
Data from the previous 72 hours. | See also: Recent months at Toowoomba
Date/Time
EST
Temp
°C
App
Temp
°C
Dew
Point
°C
Rel
Hum
%
Delta-T
°C
Wind Press
QNH
hPa
Press
MSL
hPa
Rain since
9am
mm
Dir  Spd
km/h
Gust
km/h
Spd
kts
Gust
kts
06/10:00am 27.4 22.9 10.2 34 9.9 WNW 24 32 13 17 1011.4 1007.9 0.0
06/09:30am 26.8 22.5 10.9 37 9.2 WNW 24 35 13 19 1011.6 1008.1 0.0
06/09:00am 25.6 22.1 12.1 43 8.0 WNW 22 30 12 16 1012.1 1008.5 0.0
06/08:30am 24.6 20.3 12.2 46 7.3 WNW 26 35 14 19 1012.1 1008.5 0.0
06/08:00am 23.3 20.2 12.3 50 6.4 WNW 20 28 11 15 1012.2 1008.6 0.0
06/07:30am 22.2 18.2 10.4 47 6.7 WNW 22 32 12 17 1012.1 1008.5 0.0
06/07:00am 21.4 17.8 10.6 50 6.1 WNW 20 26 11 14 1012.0 1008.4 0.0
06/06:30am 20.6 17.4 9.8 50 6.0 WNW 17 22 9 12 1011.7 1008.2 0.0
06/06:00am 19.6 17.1 9.8 53 5.4 WNW 13 20 7 11 1011.5 1008.0 0.0
06/05:30am 18.2 16.0 9.5 57 4.7 NW 11 13 6 7 1011.2 1007.7 0.0
06/05:00am 17.7 15.8 9.1 57 4.6 NW 9 11 5 6 1010.8 1007.2 0.0
06/04:30am 18.2 16.3 9.0 55 5.0 NNW 9 11 5 6 1010.7 1007.1 0.0
06/04:00am 17.9 16.1 9.3 57 4.7 NNW 9 11 5 6 1010.4 1006.8 0.0
06/03:30am 17.6 15.0 9.5 59 4.4 N 13 15 7 8 1010.3 1006.7 0.0
06/03:00am 17.8 15.3 9.7 59 4.4 N 13 15 7 8 1010.0 1006.5 0.0
06/02:30am 18.3 16.5 9.6 57 4.7 N 9 13 5 7 1010.0 1006.5 0.0
06/02:00am 16.3 15.7 11.7 74 2.6 N 6 9 3 5 1010.0 1006.5 0.0
06/01:30am 16.4 15.8 11.8 74 2.6 N 6 7 3 4 1010.3 1006.7 0.0
06/01:00am 18.8 17.5 10.1 57 4.8 N 7 9 4 5 1010.5 1006.9 0.0
06/12:30am 17.4 16.5 11.4 68 3.4 N 7 9 4 5 1011.0 1007.4 0.0
06/12:00am 17.5 16.9 11.8 69 3.2 NE 6 7 3 4 1011.3 1007.8 0.0
 
Date/Time
EST
Temp
°C
App
Temp
°C
Dew
Point
°C
Rel
Hum
%
Delta-T
°C
Wind Press
QNH
hPa
Press
MSL
hPa
Rain since
9am
mm
Dir  Spd
km/h
Gust
km/h
Spd
kts
Gust
kts
05/11:30pm 18.1 17.2 11.2 64 3.9 E 7 7 4 4 1011.6 1008.1 0.0
05/11:00pm 18.1 16.5 10.2 60 4.4 ENE 9 11 5 6 1012.0 1008.4 0.0
05/10:30pm 18.2 16.9 9.8 58 4.6 E 7 9 4 5 1012.1 1008.5 0.0
05/10:00pm 18.9 17.2 9.7 55 5.0 E 9 11 5 6 1012.1 1008.5 0.0
05/09:30pm 21.1 20.4 8.7 45 6.7 WSW 2 6 1 3 1012.1 1008.5 0.0
05/09:00pm 21.2 19.6 8.1 43 7.1 WSW 6 7 3 4 1011.8 1008.3 0.0
05/08:30pm 21.7 20.1 8.2 42 7.3 SW 6 7 3 4 1011.8 1008.3 0.0
05/08:00pm 21.9 20.2 7.7 40 7.6 WSW 6 7 3 4 1011.7 1008.2 0.0
05/07:30pm 22.2 20.4 8.0 40 7.7 SW 7 11 4 6 1011.5 1008.0 0.0
05/07:00pm 22.9 21.2 8.2 39 8.0 SW 7 9 4 5 1011.2 1007.7 0.0
05/06:30pm 23.6 21.1 8.1 37 8.5 WSW 11 15 6 8 1011.0 1007.4 0.0
05/06:00pm 24.9 20.9 8.4 35 9.1 WSW 19 24 10 13 1010.7 1007.1 0.0
05/05:30pm 25.8 22.2 8.3 33 9.7 SW 17 20 9 11 1010.4 1006.8 0.0
05/05:00pm 26.3 22.2 7.8 31 10.2 SW 19 26 10 14 1010.3 1006.7 0.0
05/04:30pm 26.4 22.5 6.9 29 10.6 SW 17 22 9 12 1010.1 1006.6 0.0
05/04:00pm 25.6 22.6 7.7 32 9.8 W 13 22 7 12 1010.0 1006.5 0.0
05/03:30pm 26.7 23.9 8.6 32 10.1 W 13 20 7 11 1010.3 1006.7 0.0
05/03:00pm 26.0 22.9 8.9 34 9.6 SSW 15 20 8 11 1010.5 1006.9 0.0
05/02:30pm 26.2 23.4 8.7 33 9.8 WNW 13 22 7 12 1010.7 1007.1 0.0
05/02:00pm 26.2 23.9 9.1 34 9.6 S 11 17 6 9 1011.0 1007.4 0.0
05/01:30pm 25.5 22.3 10.1 38 8.8 SW 17 24 9 13 1011.5 1008.0 0.0
05/01:00pm 25.4 22.8 10.8 40 8.4 S 15 24 8 13 1011.7 1008.2 0.0
05/12:30pm 25.0 21.6 9.3 37 8.8 SSW 17 26 9 14 1012.2 1008.6 0.0
05/12:00pm 24.7 23.0 9.8 39 8.4 SSE 9 22 5 12 1012.6 1009.1 0.0
05/11:30am 24.9 21.9 10.8 41 8.1 SSW 17 26 9 14 1013.0 1009.5 0.0
05/11:00am 24.7 22.4 11.6 44 7.6 SW 15 22 8 12 1013.3 1009.8 0.0
05/10:30am 23.5 22.1 12.2 49 6.6 SSW 11 19 6 10 1013.7 1010.1 0.0
05/10:00am 22.2 19.9 11.6 51 6.1 W 15 22 8 12 1013.8 1010.2 0.0
05/09:30am 22.4 22.7 14.5 61 4.8 SW 6 13 3 7 1013.9 1010.4 0.0
05/09:00am 20.9 20.8 13.8 64 4.2 NNE 7 9 4 5 1014.1 1010.6 0.0
05/08:30am 19.6 18.9 13.3 67 3.7 ENE 9 15 5 8 1014.3 1010.8 0.0
05/08:00am 19.2 18.3 13.8 71 3.2 ENE 11 17 6 9 1014.2 1010.7 0.0
05/07:30am 18.6 17.1 14.3 76 2.6 E 15 19 8 10 1014.2 1010.7 0.0
05/07:00am 17.7 15.4 14.0 79 2.2 ESE 19 24 10 13 1014.0 1010.5 0.0
05/06:30am 16.7 14.2 14.0 84 1.6 ESE 20 26 11 14 1013.9 1010.4 0.0
05/06:00am 15.6 12.8 14.3 92 0.8 E 22 26 12 14 1013.6 1010.0 0.0
05/05:30am 14.3 11.4 14.1 99 0.1 E 22 24 12 13 1013.0 1009.5 0.0
05/05:00am 13.6 10.5 13.4 99 0.1 E 22 26 12 14 1012.8 1009.3 0.0
05/04:30am 13.6 10.1 13.4 99 0.1 E 24 28 13 15 1012.6 1009.1 0.0
05/04:00am 13.4 10.2 13.2 99 0.1 ESE 22 26 12 14 1012.5 1009.0 0.0
05/03:30am 13.7 10.2 13.5 99 0.1 E 24 28 13 15 1012.4 1008.8 0.0
05/03:00am 13.7 11.0 13.5 99 0.1 E 20 24 11 13 1012.5 1009.0 0.0
05/02:30am 13.8 10.8 13.8 100 0.0 E 22 26 12 14 1012.7 1009.2 0.0
05/02:00am 13.9 11.0 13.9 100 0.0 E 22 28 12 15 1012.9 1009.4 0.0
05/01:30am 14.1 10.8 14.1 100 0.0 E 24 30 13 16 1013.2 1009.7 0.0
05/01:00am 14.3 10.0 14.3 100 0.0 E 30 35 16 19 1013.4 1009.9 0.0
05/12:30am 14.5 10.2 14.3 99 0.1 E 30 35 16 19 1013.9 1010.4 0.0
05/12:00am 14.8 10.6 14.6 99 0.1 E 30 35 16 19 1014.3 1010.8 0.0
 
Date/Time
EST
Temp
°C
App
Temp
°C
Dew
Point
°C
Rel
Hum
%
Delta-T
°C
Wind Press
QNH
hPa
Press
MSL
hPa
Rain since
9am
mm
Dir  Spd
km/h
Gust
km/h
Spd
kts
Gust
kts
04/11:30pm 14.9 10.7 14.7 99 0.1 E 30 35 16 19 1014.6 1011.1 0.0
04/11:00pm 15.2 10.7 15.0 99 0.1 E 32 35 17 19 1014.9 1011.4 0.0
04/10:30pm 15.6 11.9 15.1 97 0.3 E 28 35 15 19 1015.1 1011.6 0.0
04/10:00pm 15.9 12.2 14.9 94 0.6 E 28 33 15 18 1015.4 1011.9 0.0
04/09:30pm 16.1 11.8 15.5 96 0.4 E 32 41 17 22 1015.4 1011.9 0.0
04/09:00pm 16.6 12.1 14.8 89 1.1 E 32 39 17 21 1015.4 1011.9 0.0
04/08:30pm 17.0 13.3 15.9 93 0.7 E 30 39 16 21 1015.1 1011.6 0.0
04/08:00pm 17.8 14.5 15.1 84 1.6 E 26 33 14 18 1015.0 1011.5 0.0
04/07:30pm 18.3 14.4 14.4 78 2.3 E 28 37 15 20 1014.7 1011.2 0.0
04/07:00pm 18.5 15.1 13.8 74 2.8 E 24 33 13 18 1014.7 1011.2 0.0
04/06:30pm 19.2 15.9 14.0 72 3.1 E 24 35 13 19 1014.5 1011.0 0.0
04/06:00pm 20.0 16.0 13.0 64 4.1 E 26 33 14 18 1014.2 1010.7 0.0
04/05:30pm 20.9 17.3 13.1 61 4.6 E 24 33 13 18 1013.8 1010.2 0.0
04/05:00pm 21.9 18.1 12.5 55 5.5 E 24 32 13 17 1013.4 1009.9 0.0
04/04:30pm 22.3 18.7 12.0 52 6.0 E 22 33 12 18 1013.2 1009.7 0.0
04/04:00pm 22.2 18.5 11.6 51 6.1 E 22 33 12 18 1013.1 1009.6 0.0
04/03:30pm 22.6 18.9 11.4 49 6.4 E 22 30 12 16 1013.2 1009.7 0.0
04/03:00pm 23.0 19.4 11.7 49 6.5 E 22 32 12 17 1013.3 1009.8 0.0
04/02:30pm 22.8 18.9 12.1 51 6.2 E 24 33 13 18 1013.6 1010.0 0.0
04/02:00pm 22.9 20.3 13.7 56 5.5 E 20 33 11 18 1013.9 1010.4 0.0
04/01:30pm 22.6 18.7 12.0 51 6.2 E 24 37 13 20 1014.1 1010.6 0.0
04/01:00pm 22.4 18.1 12.1 52 6.0 E 26 35 14 19 1014.5 1011.0 0.0
04/12:30pm 22.4 18.2 12.4 53 5.8 ESE 26 37 14 20 1014.9 1011.4 0.0
04/12:00pm 21.4 16.8 12.3 56 5.3 E 28 39 15 21 1015.1 1011.6 0.0
04/11:30am 22.1 17.8 13.2 57 5.3 E 28 39 15 21 1015.4 1011.9 0.0
04/11:00am 20.6 15.8 11.5 56 5.2 E 28 39 15 21 1015.6 1012.1 0.0
04/10:30am 20.4 14.8 11.6 57 5.0 E 32 44 17 24 1015.8 1012.3 0.0
04/10:00am 19.9 14.4 11.7 59 4.7 E 32 43 17 23 1016.1 1012.6 0.0
04/09:30am 19.4 13.6 11.4 60 4.5 E 33 44 18 24 1016.1 1012.6 0.0
04/09:00am 19.1 13.2 11.2 60 4.4 ESE 33 41 18 22 1016.3 1012.8 0.0
04/08:30am 17.9 12.1 10.8 63 3.9 E 32 43 17 23 1016.4 1012.9 0.0
04/08:00am 17.4 12.1 11.2 67 3.5 E 30 39 16 21 1016.5 1013.0 0.0
04/07:30am 16.6 11.6 11.1 70 3.1 ESE 28 35 15 19 1016.5 1013.0 0.0
04/07:00am 15.8 10.6 11.6 76 2.3 ESE 30 35 16 19 1016.3 1012.8 0.0
04/06:30am 14.8 11.2 11.8 82 1.7 E 22 28 12 15 1016.1 1012.6 0.0
04/06:00am 13.7 10.2 12.3 91 0.8 E 22 30 12 16 1015.6 1012.1 0.0
04/05:30am 12.9 9.4 12.1 95 0.4 E 22 26 12 14 1015.3 1011.7 0.0
04/05:00am 12.1 8.9 11.9 99 0.1 E 20 26 11 14 1015.0 1011.5 0.0
04/04:30am 12.1 8.1 11.9 99 0.1 E 24 28 13 15 1015.0 1011.5 0.0
04/04:00am 12.2 8.6 12.0 99 0.1 E 22 28 12 15 1014.9 1011.4 0.0
04/03:30am 12.1 8.5 11.9 99 0.1 E 22 28 12 15 1015.0 1011.5 0.0
04/03:00am 12.4 8.5 12.2 99 0.1 E 24 28 13 15 1015.0 1011.5 0.0
04/02:30am 12.6 8.0 12.4 99 0.1 ESE 28 35 15 19 1015.0 1011.5 0.0
04/02:00am 12.6 8.0 12.3 98 0.2 E 28 35 15 19 1014.9 1011.4 0.0
04/01:30am 12.6 7.9 12.0 96 0.3 E 28 37 15 20 1015.1 1011.6 0.0
04/01:00am 12.9 7.7 11.6 92 0.7 E 30 39 16 21 1015.3 1011.7 0.0
04/12:30am 13.1 8.3 11.7 91 0.8 E 28 37 15 20 1015.6 1012.1 0.0
04/12:00am 13.3 8.6 11.9 91 0.8 E 28 35 15 19 1015.8 1012.3 0.0
 
Date/Time
EST
Temp
°C
App
Temp
°C
Dew
Point
°C
Rel
Hum
%
Delta-T
°C
Wind Press
QNH
hPa
Press
MSL
hPa
Rain since
9am
mm
Dir  Spd
km/h
Gust
km/h
Spd
kts
Gust
kts
03/11:30pm 13.2 8.9 12.1 93 0.6 E 26 30 14 16 1016.1 1012.6 0.0
03/11:00pm 13.6 9.6 11.8 89 1.0 E 24 30 13 16 1016.5 1013.0 0.0
03/10:30pm 13.9 9.9 11.9 88 1.1 E 24 28 13 15 1016.9 1013.4 0.0
03/10:00pm 14.1 10.1 11.8 86 1.3 E 24 30 13 16 1017.0 1013.5 0.0
03/09:30pm 14.3 10.2 11.5 83 1.5 E 24 32 13 17 1017.0 1013.5 0.0
03/09:00pm 14.8 10.6 11.0 78 2.1 E 24 32 13 17 1016.9 1013.4 0.0
03/08:30pm 15.1 10.3 10.3 73 2.6 E 26 35 14 19 1016.9 1013.4 0.0
03/08:00pm 15.6 11.9 10.2 70 2.9 E 20 28 11 15 1016.6 1013.1 0.0
03/07:30pm 16.2 11.6 9.8 66 3.5 E 24 28 13 15 1016.5 1013.0 0.0
03/07:00pm 16.8 12.4 9.0 60 4.2 E 22 30 12 16 1016.2 1012.7 0.0
03/06:30pm 17.5 13.2 9.4 59 4.4 E 22 28 12 15 1015.9 1012.4 0.0
03/06:00pm 18.0 14.3 10.1 60 4.3 ESE 20 30 11 16 1015.6 1012.1 0.0
03/05:30pm 18.5 14.6 10.8 61 4.3 ESE 22 33 12 18 1015.3 1011.7 0.0
03/05:00pm 19.2 14.6 12.2 64 4.0 E 28 35 15 19 1015.0 1011.5 0.0
03/04:30pm 19.5 14.7 12.8 65 3.9 E 30 43 16 23 1014.7 1011.2 0.0
03/04:00pm 18.8 13.9 11.4 62 4.2 ESE 28 39 15 21 1014.7 1011.2 0.0
03/03:30pm 18.7 14.1 12.2 66 3.7 E 28 37 15 20 1014.6 1011.1 0.0
03/03:00pm 20.7 14.8 12.4 59 4.8 E 35 48 19 26 1014.5 1011.0 0.0
03/02:30pm 21.0 16.2 11.6 55 5.4 E 28 41 15 22 1014.5 1011.0 0.0
03/02:00pm 21.9 16.9 11.0 50 6.2 ESE 28 39 15 21 1014.8 1011.3 0.0
03/01:30pm 21.0 16.7 10.8 52 5.8 ENE 24 37 13 20 1014.9 1011.4 0.0
03/01:00pm 21.6 17.4 12.5 56 5.3 E 26 37 14 20 1014.9 1011.4 0.0
03/12:30pm 21.1 16.5 12.3 57 5.1 ESE 28 44 15 24 1015.1 1011.6 0.0
03/12:00pm 21.5 16.3 11.5 53 5.7 E 30 44 16 24 1015.4 1011.9 0.0
03/11:30am 20.7 15.2 11.9 57 5.1 E 32 41 17 22 1015.6 1012.1 0.0
03/11:15am 20.1 15.0 11.8 59 4.7 E 30 48 16 26 1015.8 1012.3 0.0
03/11:00am 19.6 13.7 10.6 56 5.0 ESE 32 44 17 24 1015.9 1012.4 0.0
03/10:31am 20.2 14.1 10.3 53 5.5 ESE 33 52 18 28 1016.0 1012.5 0.0
03/10:30am 20.2 14.1 10.3 53 5.5 ESE 33 46 18 25 1016.0 1012.5 0.0

Latest Capital City Observations: Canberra | Sydney | Melbourne | Brisbane | Adelaide | Perth | Hobart | Darwin

Other formats

Comma delimited format used in spreadsheet applications
http://www.bom.gov.au/fwo/IDQ60901/IDQ60901.95551.axf

JavaScript Object Notation format (JSON) in row-major order
http://www.bom.gov.au/fwo/IDQ60901/IDQ60901.95551.json

Data quality

Most of these data are generated automatically and are frequently updated. Quality checks on data are not normally performed. It is possible for incorrect values to appear. Refer to information at About Latest Weather Observations and please check the disclaimer before using these data.